createdAt,value
2023-05-09T00:01:59.554Z,83.20
2023-05-09T00:04:35.101Z,83.30
2023-05-09T00:07:18.882Z,83.30
2023-05-09T00:09:50.761Z,83.30
2023-05-09T00:12:20.290Z,83.30
2023-05-09T00:14:55.310Z,83.30
2023-05-09T00:17:36.495Z,83.30
2023-05-09T00:20:22.709Z,83.30
2023-05-09T00:22:50.934Z,83.20
2023-05-09T00:25:25.885Z,83.20
2023-05-09T00:27:59.704Z,83.10
2023-05-09T00:30:29.172Z,83.20
2023-05-09T00:32:58.867Z,83.30
2023-05-09T00:35:28.638Z,83.40
2023-05-09T00:37:59.085Z,83.30
2023-05-09T00:40:29.649Z,83.40
2023-05-09T00:43:07.990Z,83.40
2023-05-09T00:45:48.886Z,83.50
2023-05-09T00:48:19.894Z,83.50
2023-05-09T00:50:55.490Z,83.60
2023-05-09T00:53:26.711Z,83.60
2023-05-09T00:55:59.016Z,83.60
2023-05-09T00:58:29.803Z,83.60
2023-05-09T01:01:00.149Z,83.50
2023-05-09T01:03:28.893Z,83.60
2023-05-09T01:06:08.893Z,83.70
2023-05-09T01:08:53.104Z,83.70
2023-05-09T01:11:33.696Z,83.70
2023-05-09T01:14:11.036Z,83.70
2023-05-09T01:16:55.828Z,83.70
2023-05-09T01:20:08.863Z,83.70
2023-05-09T01:22:52.147Z,83.70
2023-05-09T01:26:15.231Z,83.70
2023-05-09T01:29:17.922Z,83.80
2023-05-09T01:31:57.367Z,83.80
2023-05-09T01:34:34.652Z,83.80
2023-05-09T01:37:07.074Z,83.80
2023-05-09T01:39:45.764Z,83.80
2023-05-09T01:42:16.843Z,83.70
2023-05-09T01:44:48.811Z,83.90
2023-05-09T01:47:21.214Z,83.90
2023-05-09T01:50:04.127Z,83.90
2023-05-09T01:52:41.803Z,84.00
2023-05-09T01:55:14.127Z,84.20
2023-05-09T01:58:05.449Z,84.20
2023-05-09T02:00:48.667Z,84.30
2023-05-09T02:03:24.460Z,84.30
2023-05-09T02:05:59.192Z,84.30
2023-05-09T02:08:38.582Z,84.50
2023-05-09T02:11:10.967Z,84.40
2023-05-09T02:13:53.176Z,84.50
2023-05-09T02:16:23.187Z,84.50
2023-05-09T02:18:59.409Z,84.60
2023-05-09T02:21:29.311Z,84.70
2023-05-09T02:24:00.961Z,84.70
2023-05-09T02:26:33.076Z,84.60
2023-05-09T02:29:03.905Z,84.60
2023-05-09T02:34:37.393Z,84.60
2023-05-09T02:37:14.411Z,84.60
2023-05-09T02:39:45.107Z,84.70
2023-05-09T02:42:27.169Z,84.70
2023-05-09T02:44:59.187Z,84.70
2023-05-09T02:47:28.741Z,84.80
2023-05-09T02:50:06.201Z,84.80
2023-05-09T02:52:41.915Z,84.70
2023-05-09T02:55:14.264Z,84.80
2023-05-09T02:57:44.513Z,84.80
2023-05-09T03:00:18.221Z,84.80
2023-05-09T03:02:48.823Z,84.90
2023-05-09T03:05:28.537Z,84.90
2023-05-09T03:07:58.399Z,84.90
2023-05-09T03:10:37.896Z,84.90
2023-05-09T03:13:13.808Z,84.90
2023-05-09T03:15:42.207Z,84.90
2023-05-09T03:18:13.206Z,85.00
2023-05-09T03:20:54.485Z,84.90
2023-05-09T03:23:40.250Z,84.90
2023-05-09T03:29:02.594Z,84.90
2023-05-09T03:31:33.667Z,84.90
2023-05-09T03:36:49.450Z,84.90
2023-05-09T03:39:22.635Z,85.00
2023-05-09T03:41:58.041Z,85.10
2023-05-09T03:44:33.647Z,85.00
2023-05-09T03:47:12.418Z,85.10
2023-05-09T03:49:46.985Z,85.10
2023-05-09T03:52:26.262Z,85.10
2023-05-09T03:55:09.488Z,85.20
2023-05-09T03:57:48.866Z,85.20
2023-05-09T04:03:03.779Z,85.20
2023-05-09T04:05:35.365Z,85.20
2023-05-09T04:08:12.989Z,85.20
2023-05-09T04:10:50.216Z,85.20
2023-05-09T04:13:25.476Z,85.20
2023-05-09T04:15:53.657Z,85.10
2023-05-09T04:18:22.588Z,85.10
2023-05-09T04:20:56.484Z,85.10
2023-05-09T04:23:29.386Z,85.10
2023-05-09T04:25:58.022Z,85.00
2023-05-09T04:28:45.393Z,85.00
2023-05-09T04:31:15.186Z,84.90
2023-05-09T04:33:48.992Z,84.80
2023-05-09T04:39:09.013Z,84.80
2023-05-09T04:41:37.515Z,84.60
2023-05-09T04:44:09.512Z,84.60
2023-05-09T04:46:45.558Z,84.60
2023-05-09T04:49:22.340Z,84.50
2023-05-09T04:51:55.745Z,84.50
2023-05-09T04:54:35.968Z,84.50
2023-05-09T04:59:55.149Z,84.20
2023-05-09T05:02:33.909Z,84.20
2023-05-09T05:05:11.557Z,84.10
2023-05-09T05:07:43.171Z,84.10
2023-05-09T05:10:21.869Z,84.00
2023-05-09T05:13:03.011Z,83.90
2023-05-09T05:15:32.742Z,83.70
2023-05-09T05:18:06.543Z,83.60
2023-05-09T05:20:40.494Z,83.30
2023-05-09T05:23:09.949Z,83.30
2023-05-09T05:25:41.700Z,83.20
2023-05-09T05:28:15.250Z,83.10
2023-05-09T05:30:48.830Z,82.90
2023-05-09T05:36:03.445Z,82.70
2023-05-09T05:38:34.011Z,82.50
2023-05-09T05:41:15.678Z,82.40
2023-05-09T05:43:43.913Z,82.30
2023-05-09T05:46:18.656Z,82.20
2023-05-09T05:48:54.688Z,82.10
2023-05-09T05:51:36.261Z,82.10
2023-05-09T05:54:07.863Z,81.90
2023-05-09T05:56:44.025Z,81.90
2023-05-09T05:59:13.796Z,81.80
2023-05-09T06:01:43.201Z,81.70
2023-05-09T06:04:22.782Z,81.50
2023-05-09T06:06:55.617Z,81.30
2023-05-09T06:09:36.765Z,81.10
2023-05-09T06:12:07.468Z,81.00
2023-05-09T06:14:39.543Z,80.60
2023-05-09T06:17:09.699Z,80.60
2023-05-09T06:19:44.036Z,80.50
2023-05-09T06:22:16.917Z,80.20
2023-05-09T06:24:51.321Z,79.90
2023-05-09T06:27:58.439Z,79.70
2023-05-09T06:30:29.041Z,79.40
2023-05-09T06:33:11.404Z,79.50
2023-05-09T06:35:45.026Z,79.20
2023-05-09T06:38:13.201Z,79.20
2023-05-09T06:40:50.316Z,78.90
2023-05-09T06:43:22.078Z,78.40
2023-05-09T06:45:53.515Z,78.40
2023-05-09T06:48:29.260Z,78.40
2023-05-09T06:50:57.586Z,78.20
2023-05-09T06:53:28.048Z,78.30
2023-05-09T06:56:05.586Z,78.00
2023-05-09T06:58:35.071Z,77.90
2023-05-09T07:01:04.521Z,77.60
2023-05-09T07:03:32.847Z,77.50
2023-05-09T07:06:01.026Z,76.90
2023-05-09T07:08:29.158Z,76.70
2023-05-09T07:10:57.388Z,76.10
2023-05-09T07:13:25.631Z,76.70
2023-05-09T07:15:55.189Z,76.50
2023-05-09T07:18:23.386Z,76.40
2023-05-09T07:20:51.724Z,76.10
2023-05-09T07:23:19.906Z,75.90
2023-05-09T07:25:48.013Z,76.00
2023-05-09T07:28:16.156Z,75.80
2023-05-09T07:30:44.282Z,75.70
2023-05-09T07:33:13.801Z,75.70
2023-05-09T07:35:42.033Z,75.40
2023-05-09T07:38:11.066Z,75.40
2023-05-09T07:40:39.206Z,75.50
2023-05-09T07:43:07.354Z,75.20
2023-05-09T07:45:36.521Z,75.00
2023-05-09T07:48:05.054Z,74.50
2023-05-09T07:50:34.936Z,74.60
2023-05-09T07:53:03.095Z,74.00
2023-05-09T07:55:31.234Z,73.90
2023-05-09T07:57:59.417Z,73.70
2023-05-09T08:00:27.931Z,73.40
2023-05-09T08:02:56.269Z,73.00
2023-05-09T08:05:24.582Z,72.70
2023-05-09T08:07:54.153Z,72.50
2023-05-09T08:10:23.601Z,72.40
2023-05-09T08:12:52.378Z,72.00
2023-05-09T08:15:20.606Z,71.50
2023-05-09T08:17:50.873Z,71.30
2023-05-09T08:20:23.116Z,71.10
2023-05-09T08:23:07.171Z,71.00
2023-05-09T08:25:46.321Z,70.60
2023-05-09T08:28:19.407Z,70.70
2023-05-09T08:30:47.559Z,70.30
2023-05-09T08:33:15.758Z,69.90
2023-05-09T08:35:44.145Z,70.20
2023-05-09T08:38:12.328Z,70.60
2023-05-09T08:40:42.571Z,69.90
2023-05-09T08:43:11.748Z,69.90
2023-05-09T08:45:46.732Z,69.60
2023-05-09T08:48:16.720Z,68.50
2023-05-09T08:50:45.753Z,68.30
2023-05-09T08:53:14.692Z,68.10
2023-05-09T08:55:44.459Z,67.40
2023-05-09T08:58:14.326Z,67.40
2023-05-09T09:00:43.196Z,67.60
2023-05-09T09:03:11.665Z,67.60
2023-05-09T09:05:44.131Z,67.50
2023-05-09T09:08:12.368Z,67.30
2023-05-09T09:10:43.535Z,66.90
2023-05-09T09:13:12.605Z,66.60
2023-05-09T09:15:42.681Z,66.70
2023-05-09T09:18:13.639Z,65.20
2023-05-09T09:20:46.309Z,64.70
2023-05-09T09:23:19.793Z,64.90
2023-05-09T09:25:49.718Z,65.00
2023-05-09T09:28:18.352Z,64.80
2023-05-09T09:30:48.726Z,64.30
2023-05-09T09:33:23.599Z,64.00
2023-05-09T09:35:52.381Z,64.50
2023-05-09T09:38:21.297Z,63.60
2023-05-09T09:41:00.351Z,64.00
2023-05-09T09:43:29.968Z,64.00
2023-05-09T09:45:58.387Z,63.20
2023-05-09T09:48:34.773Z,63.10
2023-05-09T09:51:11.336Z,63.40
2023-05-09T09:53:43.421Z,62.50
2023-05-09T09:56:12.964Z,62.40
2023-05-09T09:58:41.346Z,62.20
2023-05-09T10:01:10.970Z,62.10
2023-05-09T10:03:40.362Z,62.10
2023-05-09T10:06:12.180Z,62.00
2023-05-09T10:08:40.375Z,62.30
2023-05-09T10:11:12.861Z,62.10
2023-05-09T10:13:45.235Z,61.90
2023-05-09T10:16:14.930Z,62.10
2023-05-09T10:18:44.093Z,62.20
2023-05-09T10:21:16.423Z,62.00
2023-05-09T10:23:49.885Z,61.80
2023-05-09T10:26:27.583Z,61.80
2023-05-09T10:28:59.217Z,63.10
2023-05-09T10:31:28.526Z,62.30
2023-05-09T10:33:57.261Z,62.80
2023-05-09T10:36:25.494Z,63.30
2023-05-09T10:38:56.374Z,63.30
2023-05-09T10:41:26.810Z,63.50
2023-05-09T10:43:57.642Z,63.70
2023-05-09T10:46:27.314Z,63.50
2023-05-09T10:48:55.892Z,63.20
2023-05-09T10:51:26.101Z,63.00
2023-05-09T10:53:56.009Z,62.60
2023-05-09T10:56:27.614Z,62.40
2023-05-09T10:58:55.962Z,62.80
2023-05-09T11:01:31.521Z,62.20
2023-05-09T11:04:01.136Z,61.50
2023-05-09T11:06:48.949Z,61.30
2023-05-09T11:09:33.131Z,61.50
2023-05-09T11:12:13.043Z,61.50
2023-05-09T11:14:45.694Z,60.70
2023-05-09T11:17:15.241Z,60.80
2023-05-09T11:20:01.054Z,60.50
2023-05-09T11:22:30.860Z,60.30
2023-05-09T11:25:05.714Z,59.80
2023-05-09T11:27:42.594Z,59.70
2023-05-09T11:30:14.210Z,59.20
2023-05-09T11:32:44.984Z,59.00
2023-05-09T11:35:16.005Z,59.40
2023-05-09T11:37:49.812Z,58.80
2023-05-09T11:40:19.353Z,59.20
2023-05-09T11:42:50.915Z,59.00
2023-05-09T11:45:19.572Z,58.90
2023-05-09T11:47:48.703Z,58.30
2023-05-09T11:50:19.459Z,58.50
2023-05-09T11:52:48.144Z,57.70
2023-05-09T11:55:18.827Z,58.00
2023-05-09T11:57:50.498Z,57.70
2023-05-09T12:00:19.990Z,57.50
2023-05-09T12:02:49.218Z,57.00
2023-05-09T12:05:19.314Z,56.80
2023-05-09T12:07:48.195Z,57.00
2023-05-09T12:10:18.309Z,57.20
2023-05-09T12:12:49.462Z,57.00
2023-05-09T12:15:18.866Z,57.10
2023-05-09T12:17:51.309Z,56.80
2023-05-09T12:20:20.250Z,56.80
2023-05-09T12:22:54.466Z,56.80
2023-05-09T12:25:23.933Z,57.20
2023-05-09T12:27:54.725Z,56.80
2023-05-09T12:30:23.309Z,56.00
2023-05-09T12:32:51.602Z,56.10
2023-05-09T12:35:23.493Z,56.20
2023-05-09T12:37:59.286Z,56.50
2023-05-09T12:40:27.917Z,56.20
2023-05-09T12:43:00.963Z,56.10
2023-05-09T12:45:29.267Z,56.20
2023-05-09T12:47:58.770Z,56.10
2023-05-09T12:50:34.942Z,55.20
2023-05-09T12:53:04.418Z,56.00
2023-05-09T12:55:39.626Z,55.00
2023-05-09T12:58:09.275Z,55.40
2023-05-09T13:00:44.295Z,55.20
2023-05-09T13:03:25.250Z,54.80
2023-05-09T13:05:57.184Z,55.40
2023-05-09T13:08:25.505Z,54.80
2023-05-09T13:11:00.677Z,54.50
2023-05-09T13:13:30.791Z,54.60
2023-05-09T13:15:59.499Z,54.90
2023-05-09T13:18:27.649Z,54.50
2023-05-09T13:20:55.927Z,54.70
2023-05-09T13:23:24.072Z,54.90
2023-05-09T13:25:52.259Z,54.60
2023-05-09T13:28:20.363Z,54.90
2023-05-09T13:30:49.876Z,55.20
2023-05-09T13:33:26.037Z,55.10
2023-05-09T13:35:54.959Z,55.20
2023-05-09T13:38:23.329Z,55.40
2023-05-09T13:40:51.636Z,55.70
2023-05-09T13:43:19.783Z,55.40
2023-05-09T13:45:52.017Z,55.30
2023-05-09T13:48:20.165Z,55.20
2023-05-09T13:50:48.404Z,55.30
2023-05-09T13:53:22.459Z,55.40
2023-05-09T13:55:50.583Z,55.30
2023-05-09T13:58:19.044Z,55.30
2023-05-09T14:00:47.181Z,55.40
2023-05-09T14:03:17.111Z,55.70
2023-05-09T14:05:45.316Z,55.70
2023-05-09T14:08:13.498Z,55.60
2023-05-09T14:10:41.754Z,56.70
2023-05-09T14:13:13.535Z,57.20
2023-05-09T14:15:44.565Z,58.00
2023-05-09T14:18:17.748Z,57.80
2023-05-09T14:20:48.796Z,58.40
2023-05-09T14:23:17.051Z,58.90
2023-05-09T14:25:45.332Z,59.50
2023-05-09T14:28:14.681Z,59.90
2023-05-09T14:30:44.723Z,60.40
2023-05-09T14:33:13.180Z,60.80
2023-05-09T14:35:43.351Z,61.40
2023-05-09T14:38:13.818Z,62.10
2023-05-09T14:40:42.016Z,62.80
2023-05-09T14:43:12.857Z,63.50
2023-05-09T14:45:41.038Z,64.60
2023-05-09T14:48:09.222Z,65.30
2023-05-09T14:50:39.465Z,66.00
2023-05-09T14:53:07.775Z,66.30
2023-05-09T14:55:37.315Z,67.00
2023-05-09T14:58:05.527Z,67.30
2023-05-09T15:00:34.170Z,67.40
2023-05-09T15:03:02.328Z,68.20
2023-05-09T15:05:30.649Z,69.30
2023-05-09T15:07:58.827Z,69.70
2023-05-09T15:10:27.856Z,70.00
2023-05-09T15:12:59.823Z,70.20
2023-05-09T15:15:28.706Z,70.40
2023-05-09T15:17:56.841Z,70.80
2023-05-09T15:20:25.089Z,71.50
2023-05-09T15:22:53.293Z,71.70
2023-05-09T15:25:22.203Z,71.90
2023-05-09T15:27:50.571Z,72.20
2023-05-09T15:30:20.363Z,72.60
2023-05-09T15:32:48.512Z,73.30
2023-05-09T15:35:18.450Z,73.50
2023-05-09T15:37:49.207Z,73.70
2023-05-09T15:40:17.713Z,74.00
2023-05-09T15:42:48.266Z,74.20
2023-05-09T15:45:17.992Z,74.20
2023-05-09T15:47:47.665Z,74.60
2023-05-09T15:50:16.108Z,74.80
2023-05-09T15:52:44.670Z,75.10
2023-05-09T15:55:14.129Z,75.50
2023-05-09T15:57:42.388Z,75.40
2023-05-09T16:00:11.591Z,75.50
2023-05-09T16:02:39.835Z,75.80
2023-05-09T16:05:09.868Z,76.00
2023-05-09T16:07:38.055Z,76.80
2023-05-09T16:10:07.233Z,77.40
2023-05-09T16:12:35.747Z,78.00
2023-05-09T16:15:04.568Z,78.10
2023-05-09T16:17:33.664Z,78.20
2023-05-09T16:20:02.116Z,77.80
2023-05-09T16:22:34.601Z,78.20
2023-05-09T16:25:02.706Z,78.40
2023-05-09T16:27:30.959Z,78.40
2023-05-09T16:29:59.364Z,78.20
2023-05-09T16:32:27.700Z,78.30
2023-05-09T16:34:58.629Z,78.20
2023-05-09T16:37:29.195Z,78.40
2023-05-09T16:40:01.719Z,79.30
2023-05-09T16:42:30.773Z,79.20
2023-05-09T16:45:01.935Z,79.20
2023-05-09T16:47:33.147Z,78.80
2023-05-09T16:50:01.350Z,78.90
2023-05-09T16:52:30.603Z,78.90
2023-05-09T16:55:06.585Z,79.10
2023-05-09T16:57:34.734Z,79.30
2023-05-09T17:00:02.976Z,79.40
2023-05-09T17:02:31.140Z,79.60
2023-05-09T17:04:59.754Z,79.90
2023-05-09T17:07:27.845Z,80.00
2023-05-09T17:09:55.938Z,79.90
2023-05-09T17:12:27.508Z,80.00
2023-05-09T17:14:55.780Z,80.20
2023-05-09T17:17:23.863Z,80.10
2023-05-09T17:19:52.420Z,80.00
2023-05-09T17:22:20.474Z,80.10
2023-05-09T17:24:48.790Z,80.20
2023-05-09T17:27:16.889Z,80.20
2023-05-09T17:29:46.336Z,80.10
2023-05-09T17:32:15.834Z,80.20
2023-05-09T17:34:43.946Z,80.40
2023-05-09T17:37:12.057Z,80.50
2023-05-09T17:39:42.268Z,80.50
2023-05-09T17:42:13.076Z,80.60
2023-05-09T17:44:50.129Z,80.60
2023-05-09T17:47:22.840Z,80.60
2023-05-09T17:49:55.451Z,80.90
2023-05-09T17:55:22.738Z,81.00
2023-05-09T17:57:51.012Z,81.20
2023-05-09T18:00:20.134Z,81.10
2023-05-09T18:02:51.144Z,81.40
2023-05-09T18:05:19.644Z,81.60
2023-05-09T18:07:47.799Z,81.50
2023-05-09T18:10:16.115Z,81.50
2023-05-09T18:12:45.238Z,80.90
2023-05-09T18:15:13.533Z,80.90
2023-05-09T18:17:41.669Z,80.60
2023-05-09T18:20:11.831Z,80.80
2023-05-09T18:22:39.981Z,80.50
2023-05-09T18:25:08.820Z,80.60
2023-05-09T18:27:36.982Z,80.50
2023-05-09T18:30:05.428Z,80.50
2023-05-09T18:32:33.837Z,80.50
2023-05-09T18:35:02.104Z,80.80
2023-05-09T18:37:31.600Z,80.80
2023-05-09T18:39:59.720Z,80.80
2023-05-09T18:42:28.108Z,80.80
2023-05-09T18:44:56.283Z,80.80
2023-05-09T18:47:25.094Z,80.70
2023-05-09T18:49:53.184Z,80.50
2023-05-09T18:52:22.675Z,80.90
2023-05-09T18:54:52.439Z,80.30
2023-05-09T18:57:20.945Z,80.30
2023-05-09T18:59:51.864Z,80.20
2023-05-09T19:02:20.645Z,80.00
2023-05-09T19:04:50.526Z,79.90
2023-05-09T19:07:18.728Z,80.10
2023-05-09T19:09:46.879Z,80.20
2023-05-09T19:12:17.721Z,80.30
2023-05-09T19:14:45.917Z,80.50
2023-05-09T19:17:14.065Z,80.70
2023-05-09T19:19:42.231Z,81.00
2023-05-09T19:22:10.461Z,81.20
2023-05-09T19:24:38.652Z,81.60
2023-05-09T19:27:07.668Z,81.70
2023-05-09T19:29:37.177Z,81.70
2023-05-09T19:32:07.073Z,81.80
2023-05-09T19:34:35.206Z,81.90
2023-05-09T19:37:03.640Z,81.90
2023-05-09T19:39:31.899Z,81.80
2023-05-09T19:42:00.824Z,81.70
2023-05-09T19:44:30.248Z,81.60
2023-05-09T19:47:01.009Z,81.40
2023-05-09T19:49:29.223Z,81.40
2023-05-09T19:51:57.290Z,81.40
2023-05-09T19:54:27.466Z,81.60
2023-05-09T19:56:55.522Z,81.80
2023-05-09T19:59:31.397Z,81.80
2023-05-09T20:04:50.102Z,82.10
2023-05-09T20:07:33.187Z,82.20
2023-05-09T20:10:16.806Z,82.30
2023-05-09T20:12:45.743Z,82.50
2023-05-09T20:15:17.653Z,82.50
2023-05-09T20:17:47.170Z,82.40
2023-05-09T20:20:16.855Z,82.90
2023-05-09T20:22:45.203Z,82.60
2023-05-09T20:25:13.667Z,82.40
2023-05-09T20:27:42.012Z,82.50
2023-05-09T20:30:11.269Z,82.60
2023-05-09T20:32:39.397Z,82.60
2023-05-09T20:35:08.232Z,83.00
2023-05-09T20:37:38.584Z,82.50
2023-05-09T20:40:08.562Z,82.50
2023-05-09T20:42:37.358Z,82.30
2023-05-09T20:45:06.193Z,82.20
2023-05-09T20:47:34.302Z,82.00
2023-05-09T20:50:02.437Z,81.90
2023-05-09T20:52:30.539Z,82.00
2023-05-09T20:55:00.387Z,82.20
2023-05-09T20:57:28.694Z,82.30
2023-05-09T20:59:56.853Z,82.30
2023-05-09T21:02:25.043Z,82.50
2023-05-09T21:04:53.275Z,82.40
2023-05-09T21:07:21.760Z,82.60
2023-05-09T21:09:50.843Z,82.20
2023-05-09T21:12:21.097Z,82.50
2023-05-09T21:14:50.741Z,82.20
2023-05-09T21:17:19.123Z,82.00
2023-05-09T21:19:51.460Z,81.70
2023-05-09T21:22:19.723Z,81.60
2023-05-09T21:24:47.871Z,81.30
2023-05-09T21:27:16.015Z,81.20
2023-05-09T21:29:49.160Z,80.90
2023-05-09T21:32:17.756Z,81.10
2023-05-09T21:34:45.897Z,81.10
2023-05-09T21:37:13.969Z,81.00
2023-05-09T21:39:42.136Z,81.30
2023-05-09T21:42:10.196Z,81.30
2023-05-09T21:44:38.354Z,81.20
2023-05-09T21:47:08.336Z,81.30
2023-05-09T21:49:36.634Z,81.20
2023-05-09T21:52:05.064Z,81.10
2023-05-09T21:54:33.196Z,81.10
2023-05-09T21:57:01.292Z,80.70
2023-05-09T21:59:29.372Z,80.60
2023-05-09T22:01:57.634Z,80.10
2023-05-09T22:04:27.292Z,79.90
2023-05-09T22:06:55.514Z,79.80
2023-05-09T22:09:23.948Z,79.60
2023-05-09T22:11:53.011Z,79.60
2023-05-09T22:14:21.137Z,79.90
2023-05-09T22:16:49.906Z,79.80
2023-05-09T22:19:18.498Z,80.00
2023-05-09T22:21:49.021Z,79.80
2023-05-09T22:24:17.251Z,80.00
2023-05-09T22:26:45.428Z,79.50
2023-05-09T22:29:16.508Z,79.50
2023-05-09T22:31:44.675Z,79.70
2023-05-09T22:34:12.801Z,80.00
2023-05-09T22:36:40.884Z,80.40
2023-05-09T22:39:11.157Z,80.20
2023-05-09T22:41:39.309Z,80.20
2023-05-09T22:44:07.964Z,80.90
2023-05-09T22:46:36.079Z,80.40
2023-05-09T22:49:04.249Z,80.80
2023-05-09T22:51:32.668Z,80.30
2023-05-09T22:54:00.828Z,80.30
2023-05-09T22:56:30.317Z,80.30
2023-05-09T22:58:59.379Z,80.30
2023-05-09T23:01:31.556Z,80.30
2023-05-09T23:04:23.373Z,80.40
2023-05-09T23:06:51.995Z,80.40
2023-05-09T23:09:25.572Z,80.30
2023-05-09T23:12:05.862Z,80.60
2023-05-09T23:14:33.982Z,80.40
2023-05-09T23:17:02.135Z,80.30
2023-05-09T23:19:30.220Z,80.60
2023-05-09T23:21:58.690Z,80.40
2023-05-09T23:24:26.860Z,80.40
2023-05-09T23:26:56.709Z,80.50
2023-05-09T23:29:25.214Z,80.30
2023-05-09T23:31:53.382Z,80.30
2023-05-09T23:34:21.558Z,80.30
2023-05-09T23:36:49.664Z,80.20
2023-05-09T23:39:17.762Z,80.10
2023-05-09T23:41:46.177Z,80.10
2023-05-09T23:44:15.618Z,80.00
2023-05-09T23:46:43.774Z,79.90
2023-05-09T23:49:13.308Z,79.70
2023-05-09T23:51:41.609Z,79.50
2023-05-09T23:54:09.787Z,79.70
2023-05-09T23:56:37.936Z,79.50
2023-05-09T23:59:06.114Z,79.30
